createdAt,value
2019-05-29T00:01:40.464Z,73.30
2019-05-29T00:06:54.239Z,73.40
2019-05-29T00:12:08.396Z,73.50
2019-05-29T00:17:23.579Z,73.60
2019-05-29T00:22:24.865Z,73.60
2019-05-29T00:27:29.284Z,73.50
2019-05-29T00:32:33.921Z,74.30
2019-05-29T00:37:50.432Z,73.60
2019-05-29T00:42:51.803Z,73.50
2019-05-29T00:47:55.154Z,73.50
2019-05-29T00:52:59.674Z,73.50
2019-05-29T00:58:04.333Z,73.60
2019-05-29T01:03:05.615Z,73.60
2019-05-29T01:08:10.313Z,73.50
2019-05-29T01:13:13.129Z,73.50
2019-05-29T01:18:15.764Z,73.40
2019-05-29T01:23:23.267Z,73.50
2019-05-29T01:28:32.405Z,73.60
2019-05-29T01:33:34.800Z,73.60
2019-05-29T01:38:36.296Z,73.70
2019-05-29T01:43:37.770Z,73.80
2019-05-29T01:48:40.155Z,73.80
2019-05-29T01:53:44.686Z,73.80
2019-05-29T01:58:58.136Z,73.80
2019-05-29T02:04:02.861Z,73.80
2019-05-29T02:09:16.429Z,73.90
2019-05-29T02:14:20.976Z,74.00
2019-05-29T02:19:24.294Z,73.90
2019-05-29T02:24:28.848Z,74.00
2019-05-29T02:29:30.317Z,73.90
2019-05-29T02:35:12.470Z,73.90
2019-05-29T02:40:18.877Z,73.90
2019-05-29T02:45:21.679Z,73.90
2019-05-29T02:50:31.221Z,74.00
2019-05-29T02:55:32.944Z,73.90
2019-05-29T03:00:54.540Z,74.10
2019-05-29T03:05:58.911Z,74.10
2019-05-29T03:11:03.457Z,74.00
2019-05-29T03:16:30.579Z,74.00
2019-05-29T03:21:49.391Z,74.00
2019-05-29T03:26:51.454Z,74.00
2019-05-29T03:31:52.757Z,73.90
2019-05-29T03:37:00.255Z,74.00
2019-05-29T03:42:28.188Z,74.10
2019-05-29T03:47:44.105Z,74.20
2019-05-29T03:52:46.445Z,74.20
2019-05-29T03:57:55.903Z,74.20
2019-05-29T04:03:00.438Z,74.30
2019-05-29T04:08:05.007Z,74.10
2019-05-29T04:13:12.796Z,74.20
2019-05-29T04:18:19.775Z,74.20
2019-05-29T04:23:22.813Z,74.00
2019-05-29T04:28:32.369Z,73.90
2019-05-29T04:33:38.913Z,73.80
2019-05-29T04:38:40.616Z,73.80
2019-05-29T04:43:46.021Z,73.70
2019-05-29T04:48:56.373Z,73.70
2019-05-29T04:54:00.895Z,73.70
2019-05-29T04:59:08.007Z,73.70
2019-05-29T05:04:15.544Z,73.60
2019-05-29T05:09:16.980Z,73.70
2019-05-29T05:14:23.795Z,73.60
2019-05-29T05:19:31.809Z,73.50
2019-05-29T05:24:36.472Z,73.40
2019-05-29T05:29:55.132Z,73.30
2019-05-29T05:35:06.910Z,73.40
2019-05-29T05:40:11.875Z,72.80
2019-05-29T05:45:17.657Z,72.00
2019-05-29T05:50:22.510Z,70.30
2019-05-29T05:55:35.955Z,68.80
2019-05-29T06:00:55.553Z,67.40
2019-05-29T06:05:56.823Z,66.90
2019-05-29T06:11:01.269Z,66.60
2019-05-29T06:16:05.926Z,66.60
2019-05-29T06:21:08.514Z,67.00
2019-05-29T06:26:18.096Z,67.70
2019-05-29T06:37:21.485Z,68.80
2019-05-29T06:42:41.942Z,69.30
2019-05-29T06:47:44.605Z,69.60
2019-05-29T06:52:47.698Z,69.70
2019-05-29T06:58:04.465Z,70.20
2019-05-29T07:03:08.915Z,70.30
2019-05-29T07:08:38.791Z,70.20
2019-05-29T07:13:58.313Z,69.90
2019-05-29T07:19:24.794Z,69.70
2019-05-29T07:24:08.494Z,69.60
2019-05-29T07:29:09.796Z,69.30
2019-05-29T07:34:14.280Z,69.30
2019-05-29T07:39:18.787Z,69.30
2019-05-29T07:44:23.394Z,69.20
2019-05-29T07:49:39.239Z,69.00
2019-05-29T07:54:40.015Z,68.90
2019-05-29T07:59:42.663Z,68.80
2019-05-29T08:04:45.162Z,68.50
2019-05-29T08:09:47.745Z,68.30
2019-05-29T08:14:50.195Z,68.30
2019-05-29T08:20:06.579Z,68.20
2019-05-29T08:25:09.211Z,67.80
2019-05-29T08:30:17.310Z,67.50
2019-05-29T08:35:21.681Z,67.20
2019-05-29T08:40:22.935Z,67.10
2019-05-29T08:45:35.065Z,66.70
2019-05-29T08:50:36.421Z,66.90
2019-05-29T08:55:44.217Z,66.40
2019-05-29T09:00:52.295Z,67.80
2019-05-29T09:06:09.157Z,67.00
2019-05-29T09:11:11.108Z,65.70
2019-05-29T09:16:12.435Z,66.20
2019-05-29T09:21:39.176Z,67.50
2019-05-29T09:26:53.364Z,67.50
2019-05-29T09:31:58.919Z,65.80
2019-05-29T09:37:00.247Z,64.40
2019-05-29T09:42:01.667Z,63.90
2019-05-29T09:47:07.030Z,64.60
2019-05-29T09:52:11.593Z,64.50
2019-05-29T09:57:15.397Z,65.10
2019-05-29T10:02:17.003Z,67.00
2019-05-29T10:07:21.562Z,65.90
2019-05-29T10:12:26.135Z,64.90
2019-05-29T10:17:30.720Z,65.80
2019-05-29T10:22:35.181Z,64.90
2019-05-29T10:27:55.060Z,65.70
2019-05-29T10:32:59.614Z,64.70
2019-05-29T10:38:06.929Z,65.00
2019-05-29T10:43:10.317Z,65.80
2019-05-29T10:48:27.059Z,66.50
2019-05-29T10:53:31.600Z,66.30
2019-05-29T10:58:47.990Z,65.50
2019-05-29T11:03:40.102Z,65.00
2019-05-29T11:08:41.352Z,65.90
2019-05-29T11:13:46.683Z,65.50
2019-05-29T11:18:49.153Z,64.80
2019-05-29T11:23:51.778Z,64.00
2019-05-29T11:28:54.403Z,64.90
2019-05-29T11:34:01.641Z,63.70
2019-05-29T11:39:07.866Z,63.10
2019-05-29T11:44:22.661Z,63.40
2019-05-29T11:49:24.949Z,65.50
2019-05-29T11:55:08.479Z,66.10
2019-05-29T12:00:20.914Z,66.90
2019-05-29T12:05:22.705Z,65.80
2019-05-29T12:10:29.795Z,66.30
2019-05-29T12:15:31.137Z,68.10
2019-05-29T12:20:32.454Z,67.80
2019-05-29T12:25:34.844Z,67.10
2019-05-29T12:30:42.324Z,66.50
2019-05-29T12:35:44.881Z,65.40
2019-05-29T12:40:55.343Z,64.60
2019-05-29T12:46:04.027Z,64.50
2019-05-29T12:51:20.609Z,63.90
2019-05-29T12:56:25.130Z,63.20
2019-05-29T13:01:26.393Z,63.00
2019-05-29T13:06:28.682Z,62.80
2019-05-29T13:11:33.232Z,61.80
2019-05-29T13:16:40.364Z,60.30
2019-05-29T13:21:41.737Z,60.30
2019-05-29T13:26:46.248Z,60.20
2019-05-29T13:31:57.129Z,60.70
2019-05-29T13:37:02.861Z,61.00
2019-05-29T13:42:07.356Z,61.70
2019-05-29T13:47:12.265Z,59.70
2019-05-29T13:52:19.632Z,57.80
2019-05-29T13:57:22.133Z,57.40
2019-05-29T14:02:26.771Z,57.80
2019-05-29T14:07:31.208Z,58.90
2019-05-29T14:12:32.476Z,60.20
2019-05-29T14:17:48.920Z,59.50
2019-05-29T14:22:53.426Z,57.80
2019-05-29T14:27:56.768Z,58.20
2019-05-29T14:33:15.134Z,59.10
2019-05-29T14:38:16.565Z,60.00
2019-05-29T14:43:17.832Z,60.50
2019-05-29T14:48:31.300Z,59.00
2019-05-29T14:53:36.231Z,58.10
2019-05-29T15:04:42.256Z,61.80
2019-05-29T15:09:48.253Z,63.80
2019-05-29T15:15:00.988Z,63.70
2019-05-29T15:20:07.522Z,63.00
2019-05-29T15:25:18.347Z,62.80
2019-05-29T15:30:23.652Z,61.30
2019-05-29T15:35:26.403Z,59.80
2019-05-29T15:40:43.880Z,60.40
2019-05-29T15:45:48.415Z,60.20
2019-05-29T15:50:56.652Z,59.30
2019-05-29T15:56:27.380Z,56.40
2019-05-29T16:01:26.295Z,56.10
2019-05-29T16:06:27.567Z,55.80
2019-05-29T16:11:37.920Z,55.80
2019-05-29T16:16:51.285Z,57.90
2019-05-29T16:21:52.550Z,59.30
2019-05-29T16:27:08.254Z,60.50
2019-05-29T16:32:01.199Z,60.10
2019-05-29T16:37:08.612Z,60.80
2019-05-29T16:42:09.993Z,61.00
2019-05-29T16:47:12.592Z,61.00
2019-05-29T16:52:19.145Z,60.50
2019-05-29T16:57:21.203Z,60.70
2019-05-29T17:02:26.146Z,61.50
2019-05-29T17:07:27.517Z,62.10
2019-05-29T17:12:32.076Z,62.20
2019-05-29T17:17:34.545Z,61.90
2019-05-29T17:22:35.976Z,61.60
2019-05-29T17:27:46.355Z,61.60
2019-05-29T17:32:49.887Z,61.50
2019-05-29T17:38:06.139Z,61.30
2019-05-29T17:43:08.613Z,61.00
2019-05-29T17:48:13.169Z,61.00
2019-05-29T17:53:15.770Z,61.20
2019-05-29T17:58:18.593Z,61.60
2019-05-29T18:03:20.605Z,61.70
2019-05-29T18:08:23.014Z,61.90
2019-05-29T18:13:39.613Z,61.60
2019-05-29T18:18:40.975Z,61.40
2019-05-29T18:23:46.006Z,61.30
2019-05-29T18:28:53.282Z,61.10
2019-05-29T18:33:54.552Z,61.00
2019-05-29T18:39:15.247Z,60.80
2019-05-29T18:44:20.743Z,60.80
2019-05-29T18:49:26.364Z,60.60
2019-05-29T18:54:28.128Z,60.40
2019-05-29T18:59:32.626Z,60.40
2019-05-29T19:04:39.864Z,60.30
2019-05-29T19:09:43.261Z,60.30
2019-05-29T19:14:50.476Z,61.00
2019-05-29T19:19:54.840Z,60.30
2019-05-29T19:25:08.954Z,60.20
2019-05-29T19:30:12.860Z,60.10
2019-05-29T19:35:15.573Z,60.10
2019-05-29T19:40:17.032Z,60.00
2019-05-29T19:45:21.913Z,60.10
2019-05-29T19:50:23.281Z,60.00
2019-05-29T19:55:30.212Z,60.00
2019-05-29T20:00:32.135Z,60.00
2019-05-29T20:05:36.970Z,60.00
2019-05-29T20:11:00.381Z,59.90
2019-05-29T20:16:07.512Z,59.80
2019-05-29T20:21:12.051Z,59.70
2019-05-29T20:26:15.341Z,59.60
2019-05-29T20:31:22.666Z,59.70
2019-05-29T20:36:37.258Z,59.70
2019-05-29T20:41:49.252Z,59.70
2019-05-29T20:46:53.828Z,59.70
2019-05-29T20:52:04.608Z,59.70
2019-05-29T20:57:21.015Z,59.80
2019-05-29T21:02:25.538Z,59.80
2019-05-29T21:07:28.922Z,59.80
2019-05-29T21:13:04.025Z,59.80
2019-05-29T21:18:11.416Z,59.90
2019-05-29T21:23:38.317Z,59.80
2019-05-29T21:28:50.466Z,59.80
2019-05-29T21:33:55.424Z,59.60
2019-05-29T21:38:59.848Z,59.50
2019-05-29T21:44:04.321Z,59.50
2019-05-29T21:49:05.670Z,59.60
2019-05-29T21:54:10.245Z,59.70
2019-05-29T21:59:21.841Z,59.80
2019-05-29T22:04:24.266Z,59.80
2019-05-29T22:09:27.552Z,59.80
2019-05-29T22:14:34.718Z,59.80
2019-05-29T22:19:45.246Z,59.80
2019-05-29T22:24:47.664Z,59.80
2019-05-29T22:30:14.651Z,59.70
2019-05-29T22:35:21.216Z,59.70
2019-05-29T22:40:25.849Z,59.70
2019-05-29T22:45:36.200Z,59.60
2019-05-29T22:50:55.856Z,59.60
2019-05-29T22:55:57.858Z,59.60
2019-05-29T23:01:00.046Z,59.60
2019-05-29T23:06:07.338Z,59.60
2019-05-29T23:11:11.920Z,59.60
2019-05-29T23:16:16.436Z,59.60
2019-05-29T23:21:20.944Z,59.50
2019-05-29T23:26:24.247Z,59.60
2019-05-29T23:31:34.892Z,59.60
2019-05-29T23:36:42.588Z,59.60
2019-05-29T23:41:43.809Z,59.70
2019-05-29T23:46:51.035Z,59.60
2019-05-29T23:52:02.494Z,59.60
2019-05-29T23:57:11.433Z,59.70
